createdAt,value
2018-04-18T00:02:25.044Z,51.50
2018-04-18T00:04:52.506Z,51.50
2018-04-18T00:07:19.947Z,51.50
2018-04-18T00:09:47.418Z,51.40
2018-04-18T00:12:14.872Z,51.60
2018-04-18T00:14:42.329Z,51.50
2018-04-18T00:17:09.778Z,51.60
2018-04-18T00:19:37.244Z,51.60
2018-04-18T00:22:04.698Z,51.70
2018-04-18T00:24:32.201Z,51.60
2018-04-18T00:26:59.621Z,51.60
2018-04-18T00:29:27.088Z,51.90
2018-04-18T00:31:54.564Z,52.10
2018-04-18T00:34:22.796Z,52.20
2018-04-18T00:36:50.254Z,52.20
2018-04-18T00:39:17.724Z,52.30
2018-04-18T00:41:45.177Z,52.40
2018-04-18T00:44:12.636Z,52.50
2018-04-18T00:46:40.092Z,52.70
2018-04-18T00:49:07.545Z,52.80
2018-04-18T00:51:35.004Z,52.70
2018-04-18T00:54:02.461Z,52.80
2018-04-18T00:56:29.921Z,52.80
2018-04-18T00:58:57.375Z,53.00
2018-04-18T01:01:24.833Z,53.60
2018-04-18T01:03:52.285Z,53.10
2018-04-18T01:06:19.752Z,52.90
2018-04-18T01:08:47.222Z,53.00
2018-04-18T01:11:14.676Z,53.20
2018-04-18T01:13:42.132Z,53.00
2018-04-18T01:16:09.583Z,53.00
2018-04-18T01:18:37.036Z,53.30
2018-04-18T01:21:05.305Z,53.30
2018-04-18T01:23:32.769Z,53.30
2018-04-18T01:26:00.224Z,53.30
2018-04-18T01:28:27.681Z,53.30
2018-04-18T01:30:55.197Z,53.20
2018-04-18T01:33:22.680Z,53.30
2018-04-18T01:35:50.136Z,53.60
2018-04-18T01:38:17.591Z,53.60
2018-04-18T01:40:45.065Z,53.80
2018-04-18T01:43:12.529Z,53.50
2018-04-18T01:45:40.747Z,53.60
2018-04-18T01:48:08.965Z,53.60
2018-04-18T01:50:36.420Z,53.60
2018-04-18T01:53:03.869Z,53.60
2018-04-18T01:55:31.324Z,53.50
2018-04-18T01:57:58.780Z,53.70
2018-04-18T02:00:26.236Z,53.80
2018-04-18T02:02:53.679Z,53.90
2018-04-18T02:05:21.136Z,53.80
2018-04-18T02:07:48.588Z,53.80
2018-04-18T02:10:16.048Z,53.80
2018-04-18T02:12:43.491Z,54.00
2018-04-18T02:15:11.718Z,53.80
2018-04-18T02:17:39.164Z,53.80
2018-04-18T02:20:06.616Z,53.80
2018-04-18T02:22:34.073Z,53.90
2018-04-18T02:25:01.527Z,53.80
2018-04-18T02:27:28.974Z,53.80
2018-04-18T02:29:56.423Z,54.00
2018-04-18T02:32:23.884Z,53.90
2018-04-18T02:34:51.341Z,54.10
2018-04-18T02:37:18.789Z,54.20
2018-04-18T02:39:47.027Z,54.20
2018-04-18T02:42:14.483Z,54.10
2018-04-18T02:44:41.931Z,54.20
2018-04-18T02:47:09.394Z,54.30
2018-04-18T02:49:37.607Z,54.40
2018-04-18T02:52:05.852Z,54.40
2018-04-18T02:54:33.308Z,54.30
2018-04-18T02:57:00.765Z,54.40
2018-04-18T02:59:28.209Z,54.30
2018-04-18T03:01:55.670Z,54.20
2018-04-18T03:04:23.131Z,54.50
2018-04-18T03:06:50.646Z,54.40
2018-04-18T03:09:18.079Z,54.40
2018-04-18T03:11:45.540Z,54.60
2018-04-18T03:14:13.796Z,54.60
2018-04-18T03:16:41.248Z,54.50
2018-04-18T03:19:08.705Z,54.40
2018-04-18T03:21:36.155Z,54.60
2018-04-18T03:24:03.596Z,54.60
2018-04-18T03:26:31.074Z,54.60
2018-04-18T03:28:58.508Z,54.80
2018-04-18T03:31:25.972Z,54.90
2018-04-18T03:33:53.440Z,54.80
2018-04-18T03:36:20.913Z,54.90
2018-04-18T03:38:48.371Z,55.00
2018-04-18T03:41:15.833Z,55.10
2018-04-18T03:43:44.056Z,55.10
2018-04-18T03:46:11.523Z,55.10
2018-04-18T03:48:38.978Z,55.10
2018-04-18T03:51:06.436Z,55.10
2018-04-18T03:53:33.891Z,55.20
2018-04-18T03:56:01.356Z,55.10
2018-04-18T03:58:28.804Z,55.20
2018-04-18T04:00:56.276Z,55.20
2018-04-18T04:03:23.725Z,55.20
2018-04-18T04:05:51.188Z,55.30
2018-04-18T04:08:18.640Z,55.30
2018-04-18T04:10:46.096Z,55.30
2018-04-18T04:13:13.543Z,55.40
2018-04-18T04:15:41.004Z,55.30
2018-04-18T04:18:20.952Z,55.50
2018-04-18T04:21:00.227Z,55.50
2018-04-18T04:23:39.476Z,55.50
2018-04-18T04:26:07.699Z,55.40
2018-04-18T04:28:35.150Z,55.40
2018-04-18T04:31:02.615Z,55.60
2018-04-18T04:33:30.827Z,55.60
2018-04-18T04:35:58.292Z,55.50
2018-04-18T04:38:25.745Z,55.70
2018-04-18T04:40:53.188Z,55.50
2018-04-18T04:43:20.639Z,55.60
2018-04-18T04:45:48.132Z,55.50
2018-04-18T04:48:16.360Z,55.40
2018-04-18T04:50:43.812Z,55.30
2018-04-18T04:53:11.277Z,55.40
2018-04-18T04:55:38.722Z,55.50
2018-04-18T04:58:06.176Z,55.40
2018-04-18T05:00:33.620Z,55.60
2018-04-18T05:03:01.088Z,55.60
2018-04-18T05:05:28.532Z,55.60
2018-04-18T05:07:56.021Z,55.50
2018-04-18T05:10:23.536Z,55.40
2018-04-18T05:12:50.946Z,55.40
2018-04-18T05:15:18.392Z,55.50
2018-04-18T05:17:45.853Z,55.50
2018-04-18T05:20:13.308Z,55.30
2018-04-18T05:22:40.764Z,55.30
2018-04-18T05:25:08.228Z,55.20
2018-04-18T05:27:35.692Z,55.20
2018-04-18T05:30:03.147Z,55.20
2018-04-18T05:32:30.601Z,55.30
2018-04-18T05:34:58.048Z,55.40
2018-04-18T05:37:25.508Z,55.20
2018-04-18T05:39:52.959Z,55.10
2018-04-18T05:42:20.414Z,55.10
2018-04-18T05:44:47.857Z,55.00
2018-04-18T05:47:15.327Z,54.90
2018-04-18T05:49:42.767Z,55.10
2018-04-18T05:52:10.253Z,55.00
2018-04-18T05:54:37.700Z,55.50
2018-04-18T05:57:05.185Z,54.90
2018-04-18T05:59:32.626Z,55.00
2018-04-18T06:02:00.097Z,55.10
2018-04-18T06:04:27.564Z,55.00
2018-04-18T06:06:55.024Z,54.90
2018-04-18T06:09:22.547Z,54.80
2018-04-18T06:11:50.006Z,54.70
2018-04-18T06:14:17.444Z,54.90
2018-04-18T06:16:45.663Z,54.80
2018-04-18T06:19:13.184Z,54.80
2018-04-18T06:21:40.567Z,54.80
2018-04-18T06:24:08.022Z,54.80
2018-04-18T06:26:35.466Z,54.70
2018-04-18T06:29:02.935Z,54.70
2018-04-18T06:31:30.383Z,54.70
2018-04-18T06:33:57.831Z,54.60
2018-04-18T06:36:25.311Z,54.60
2018-04-18T06:38:52.771Z,54.60
2018-04-18T06:41:20.219Z,54.70
2018-04-18T06:43:47.685Z,54.50
2018-04-18T06:46:15.134Z,54.30
2018-04-18T06:48:42.584Z,54.00
2018-04-18T06:51:10.035Z,53.80
2018-04-18T06:53:37.499Z,54.10
2018-04-18T06:56:04.964Z,54.40
2018-04-18T06:58:32.436Z,54.20
2018-04-18T07:00:59.883Z,54.10
2018-04-18T07:03:28.125Z,53.50
2018-04-18T07:05:55.586Z,53.50
2018-04-18T07:08:23.040Z,53.20
2018-04-18T07:10:50.485Z,53.00
2018-04-18T07:13:18.699Z,52.60
2018-04-18T07:15:46.151Z,52.50
2018-04-18T07:18:13.604Z,52.30
2018-04-18T07:20:41.780Z,52.20
2018-04-18T07:23:09.238Z,52.00
2018-04-18T07:25:36.707Z,51.90
2018-04-18T07:28:04.163Z,51.80
2018-04-18T07:30:31.775Z,51.60
2018-04-18T07:32:59.992Z,51.20
2018-04-18T07:35:27.443Z,51.20
2018-04-18T07:37:54.899Z,50.90
2018-04-18T07:40:22.343Z,50.70
2018-04-18T07:42:49.795Z,50.40
2018-04-18T07:45:17.243Z,50.00
2018-04-18T07:47:45.475Z,49.50
2018-04-18T07:50:12.924Z,49.50
2018-04-18T07:52:40.359Z,49.40
2018-04-18T07:55:07.827Z,49.10
2018-04-18T07:57:35.275Z,48.90
2018-04-18T08:00:02.780Z,48.80
2018-04-18T08:02:30.215Z,48.60
2018-04-18T08:04:57.670Z,48.30
2018-04-18T08:07:25.118Z,48.10
2018-04-18T08:09:52.588Z,47.90
2018-04-18T08:12:20.040Z,47.60
2018-04-18T08:14:47.496Z,47.40
2018-04-18T08:17:14.940Z,47.20
2018-04-18T08:19:42.392Z,47.10
2018-04-18T08:22:09.836Z,46.80
2018-04-18T08:24:37.310Z,46.80
2018-04-18T08:27:04.763Z,46.40
2018-04-18T08:29:32.220Z,46.30
2018-04-18T08:31:59.679Z,46.10
2018-04-18T08:34:27.902Z,45.60
2018-04-18T08:36:55.344Z,45.60
2018-04-18T08:39:22.801Z,45.50
2018-04-18T08:41:50.251Z,45.10
2018-04-18T08:44:17.701Z,44.90
2018-04-18T08:46:45.139Z,44.70
2018-04-18T08:49:12.595Z,44.30
2018-04-18T08:51:40.045Z,44.00
2018-04-18T08:54:07.525Z,43.60
2018-04-18T08:56:34.975Z,43.20
2018-04-18T08:59:02.427Z,42.90
2018-04-18T09:01:29.877Z,42.60
2018-04-18T09:03:57.328Z,42.20
2018-04-18T09:06:24.799Z,41.90
2018-04-18T09:08:52.260Z,41.70
2018-04-18T09:11:19.696Z,41.40
2018-04-18T09:13:47.148Z,41.10
2018-04-18T09:16:14.622Z,40.90
2018-04-18T09:18:42.079Z,40.80
2018-04-18T09:21:09.520Z,40.50
2018-04-18T09:23:36.985Z,40.20
2018-04-18T09:26:04.429Z,40.00
2018-04-18T09:28:32.688Z,39.50
2018-04-18T09:31:00.100Z,39.50
2018-04-18T09:33:27.552Z,39.30
2018-04-18T09:35:55.008Z,38.80
2018-04-18T09:38:23.215Z,38.20
2018-04-18T09:40:50.676Z,38.20
2018-04-18T09:43:18.115Z,38.00
2018-04-18T09:45:45.574Z,37.70
2018-04-18T09:48:13.027Z,37.70
2018-04-18T09:50:40.485Z,37.00
2018-04-18T09:53:07.931Z,37.30
2018-04-18T09:55:35.403Z,36.50
2018-04-18T09:58:02.855Z,36.30
2018-04-18T10:03:29.912Z,35.90
2018-04-18T10:05:57.368Z,35.90
2018-04-18T10:08:24.824Z,35.60
2018-04-18T10:10:52.279Z,35.30
2018-04-18T10:13:20.503Z,35.00
2018-04-18T10:15:47.949Z,34.80
2018-04-18T10:18:15.400Z,34.70
2018-04-18T10:20:42.853Z,34.30
2018-04-18T10:23:10.299Z,34.20
2018-04-18T10:25:37.757Z,33.80
2018-04-18T10:28:05.222Z,33.60
2018-04-18T10:30:32.671Z,33.30
2018-04-18T10:33:00.118Z,33.10
2018-04-18T10:35:27.571Z,33.10
2018-04-18T10:37:55.029Z,32.80
2018-04-18T10:40:22.512Z,32.30
2018-04-18T10:42:49.956Z,32.20
2018-04-18T10:45:17.409Z,31.80
2018-04-18T10:47:44.856Z,31.60
2018-04-18T10:50:12.319Z,31.40
2018-04-18T10:52:39.778Z,31.10
2018-04-18T10:55:07.240Z,30.90
2018-04-18T10:57:34.688Z,30.70
2018-04-18T11:00:02.147Z,30.40
2018-04-18T11:02:29.600Z,30.20
2018-04-18T11:04:57.065Z,29.90
2018-04-18T11:07:24.517Z,29.50
2018-04-18T11:09:51.980Z,29.00
2018-04-18T11:12:19.442Z,28.50
2018-04-18T11:14:46.890Z,27.80
2018-04-18T11:17:14.346Z,26.50
2018-04-18T11:19:41.795Z,24.80
2018-04-18T11:22:09.247Z,22.50
2018-04-18T11:24:36.728Z,20.80
2018-04-18T11:27:04.177Z,20.00
2018-04-18T11:29:31.632Z,19.50
2018-04-18T11:31:59.088Z,19.00
2018-04-18T11:34:26.546Z,18.80
2018-04-18T11:36:54.003Z,18.90
2018-04-18T11:39:21.453Z,18.80
2018-04-18T11:41:48.902Z,18.90
2018-04-18T11:44:16.356Z,18.90
2018-04-18T11:46:43.821Z,18.60
2018-04-18T11:49:11.272Z,18.30
2018-04-18T11:51:38.725Z,18.20
2018-04-18T11:54:06.944Z,17.90
2018-04-18T11:56:34.391Z,17.90
2018-04-18T11:59:02.595Z,18.10
2018-04-18T12:01:30.084Z,18.10
2018-04-18T12:03:58.299Z,18.00
2018-04-18T12:06:25.752Z,18.00
2018-04-18T12:08:53.213Z,17.90
2018-04-18T12:11:20.659Z,17.90
2018-04-18T12:13:48.116Z,17.40
2018-04-18T12:16:16.328Z,17.50
2018-04-18T12:18:43.795Z,18.00
2018-04-18T12:21:11.236Z,17.70
2018-04-18T12:23:38.716Z,18.00
2018-04-18T12:26:06.175Z,18.00
2018-04-18T12:28:33.620Z,17.60
2018-04-18T12:31:01.075Z,17.20
2018-04-18T12:33:28.520Z,17.20
2018-04-18T12:35:55.968Z,16.90
2018-04-18T12:38:23.430Z,16.30
2018-04-18T12:40:50.886Z,16.00
2018-04-18T12:43:18.333Z,16.30
2018-04-18T12:45:46.555Z,16.70
2018-04-18T12:48:14.794Z,17.20
2018-04-18T12:50:42.276Z,16.60
2018-04-18T12:53:09.720Z,16.80
2018-04-18T12:55:37.959Z,17.30
2018-04-18T12:58:05.393Z,17.10
2018-04-18T13:00:32.845Z,17.70
2018-04-18T13:03:01.064Z,18.20
2018-04-18T13:05:28.519Z,18.20
2018-04-18T13:07:55.970Z,18.00
2018-04-18T13:10:23.428Z,17.80
2018-04-18T13:12:50.891Z,17.20
2018-04-18T13:15:18.353Z,16.80
2018-04-18T13:17:45.804Z,16.40
2018-04-18T13:20:13.265Z,16.40
2018-04-18T13:22:40.723Z,16.50
2018-04-18T13:25:08.174Z,16.60
2018-04-18T13:27:35.630Z,16.70
2018-04-18T13:30:03.093Z,16.50
2018-04-18T13:32:30.543Z,16.30
2018-04-18T13:34:58.760Z,16.10
2018-04-18T13:37:26.215Z,16.10
2018-04-18T13:39:53.664Z,15.80
2018-04-18T13:42:21.121Z,15.60
2018-04-18T13:44:48.577Z,15.40
2018-04-18T13:47:16.036Z,15.30
2018-04-18T13:49:43.488Z,15.30
2018-04-18T13:52:10.937Z,15.10
2018-04-18T13:54:38.379Z,15.30
2018-04-18T13:57:05.864Z,15.20
2018-04-18T13:59:33.300Z,15.20
2018-04-18T14:02:00.755Z,15.30
2018-04-18T14:04:28.202Z,15.30
2018-04-18T14:06:55.663Z,15.40
2018-04-18T14:09:23.108Z,15.40
2018-04-18T14:11:50.554Z,15.60
2018-04-18T14:14:17.999Z,15.60
2018-04-18T14:16:46.232Z,15.90
2018-04-18T14:19:13.688Z,15.80
2018-04-18T14:21:41.148Z,16.00
2018-04-18T14:24:08.595Z,16.40
2018-04-18T14:26:36.072Z,17.10
2018-04-18T14:29:04.271Z,19.00
2018-04-18T14:31:31.727Z,18.90
2018-04-18T14:33:59.167Z,19.60
2018-04-18T14:36:26.636Z,20.10
2018-04-18T14:38:54.092Z,20.50
2018-04-18T14:41:21.551Z,20.80
2018-04-18T14:43:49.000Z,21.20
2018-04-18T14:46:16.471Z,21.50
2018-04-18T14:48:43.925Z,21.60
2018-04-18T14:51:11.372Z,21.20
2018-04-18T14:53:38.832Z,20.50
2018-04-18T14:56:06.271Z,20.10
2018-04-18T14:58:33.731Z,19.90
2018-04-18T15:01:01.171Z,19.80
2018-04-18T15:03:28.675Z,19.70
2018-04-18T15:05:56.134Z,19.80
2018-04-18T15:08:23.584Z,19.80
2018-04-18T15:10:51.043Z,19.90
2018-04-18T15:13:18.491Z,20.10
2018-04-18T15:15:45.936Z,20.30
2018-04-18T15:18:13.388Z,20.50
2018-04-18T15:20:40.836Z,20.80
2018-04-18T15:23:08.302Z,21.20
2018-04-18T15:25:35.748Z,21.50
2018-04-18T15:28:03.202Z,22.30
2018-04-18T15:30:30.651Z,23.20
2018-04-18T15:32:58.109Z,23.90
2018-04-18T15:35:25.551Z,24.60
2018-04-18T15:37:53.004Z,25.30
2018-04-18T15:40:20.452Z,25.80
2018-04-18T15:42:48.668Z,27.00
2018-04-18T15:45:16.119Z,27.00
2018-04-18T15:47:44.345Z,28.00
2018-04-18T15:50:11.789Z,27.90
2018-04-18T15:52:39.259Z,28.30
2018-04-18T15:55:06.697Z,28.80
2018-04-18T15:57:34.153Z,29.00
2018-04-18T16:00:01.601Z,29.40
2018-04-18T16:02:29.079Z,29.70
2018-04-18T16:04:57.287Z,30.00
2018-04-18T16:07:24.749Z,30.00
2018-04-18T16:09:52.196Z,30.70
2018-04-18T16:12:20.415Z,30.60
2018-04-18T16:14:47.912Z,30.50
2018-04-18T16:17:15.383Z,30.80
2018-04-18T16:19:42.847Z,31.10
2018-04-18T16:22:11.069Z,31.40
2018-04-18T16:24:38.512Z,31.40
2018-04-18T16:27:05.965Z,31.80
2018-04-18T16:29:43.273Z,32.00
2018-04-18T16:32:10.740Z,32.20
2018-04-18T16:34:38.196Z,33.00
2018-04-18T16:37:05.664Z,32.60
2018-04-18T16:39:33.123Z,32.90
2018-04-18T16:42:00.567Z,33.00
2018-04-18T16:44:28.020Z,33.10
2018-04-18T16:46:55.467Z,33.20
2018-04-18T16:49:22.940Z,33.50
2018-04-18T16:51:50.400Z,33.70
2018-04-18T16:54:17.856Z,33.90
2018-04-18T16:56:45.292Z,34.00
2018-04-18T16:59:12.749Z,34.20
2018-04-18T17:01:40.268Z,34.20
2018-04-18T17:04:07.768Z,34.30
2018-04-18T17:06:35.318Z,34.50
2018-04-18T17:09:02.721Z,34.50
2018-04-18T17:11:30.187Z,34.60
2018-04-18T17:13:58.445Z,34.80
2018-04-18T17:16:25.903Z,34.80
2018-04-18T17:18:53.383Z,35.10
2018-04-18T17:21:21.624Z,35.30
2018-04-18T17:23:49.130Z,35.20
2018-04-18T17:26:18.072Z,28.40
2018-04-18T17:28:45.521Z,28.30
2018-04-18T17:31:12.976Z,30.50
2018-04-18T17:33:40.621Z,33.90
2018-04-18T17:36:08.313Z,35.20
2018-04-18T17:38:36.770Z,31.60
2018-04-18T17:41:04.235Z,31.60
2018-04-18T17:43:31.698Z,30.30
2018-04-18T17:45:59.180Z,33.80
2018-04-18T17:48:26.640Z,31.70
2018-04-18T17:50:54.110Z,30.70
2018-04-18T17:53:21.564Z,31.40
2018-04-18T17:55:49.788Z,31.70
2018-04-18T17:58:17.253Z,31.60
2018-04-18T18:00:45.471Z,31.40
2018-04-18T18:03:12.932Z,31.40
2018-04-18T18:05:40.385Z,31.70
2018-04-18T18:08:07.839Z,31.80
2018-04-18T18:10:35.287Z,32.40
2018-04-18T18:13:02.751Z,32.20
2018-04-18T18:15:30.215Z,32.40
2018-04-18T18:17:57.685Z,32.60
2018-04-18T18:20:25.141Z,33.10
2018-04-18T18:22:53.384Z,33.70
2018-04-18T18:25:20.857Z,33.70
2018-04-18T18:27:48.300Z,34.00
2018-04-18T18:30:15.765Z,34.50
2018-04-18T18:32:43.235Z,33.90
2018-04-18T18:35:10.697Z,34.10
2018-04-18T18:37:38.140Z,34.20
2018-04-18T18:40:05.600Z,34.40
2018-04-18T18:42:33.056Z,34.90
2018-04-18T18:45:00.519Z,34.80
2018-04-18T18:47:28.729Z,35.20
2018-04-18T18:49:56.198Z,35.20
2018-04-18T18:52:23.684Z,35.40
2018-04-18T18:54:51.156Z,35.80
2018-04-18T18:57:18.603Z,36.20
2018-04-18T18:59:46.059Z,36.30
2018-04-18T19:02:13.536Z,36.40
2018-04-18T19:04:41.004Z,36.90
2018-04-18T19:07:08.457Z,37.00
2018-04-18T19:09:35.925Z,37.40
2018-04-18T19:12:03.376Z,37.70
2018-04-18T19:14:30.836Z,36.50
2018-04-18T19:16:58.289Z,36.00
2018-04-18T19:19:25.741Z,35.80
2018-04-18T19:21:53.191Z,35.40
2018-04-18T19:24:20.644Z,35.20
2018-04-18T19:26:48.867Z,35.10
2018-04-18T19:29:16.320Z,35.00
2018-04-18T19:31:43.764Z,35.00
2018-04-18T19:34:11.976Z,35.00
2018-04-18T19:36:39.441Z,34.90
2018-04-18T19:39:06.896Z,34.90
2018-04-18T19:41:34.395Z,34.90
2018-04-18T19:44:01.813Z,35.00
2018-04-18T19:46:29.264Z,35.00
2018-04-18T19:48:56.773Z,35.70
2018-04-18T19:51:24.227Z,35.10
2018-04-18T19:53:51.740Z,35.20
2018-04-18T19:56:19.199Z,35.20
2018-04-18T19:58:46.646Z,35.20
2018-04-18T20:01:14.115Z,35.90
2018-04-18T20:03:41.543Z,35.40
2018-04-18T20:06:08.999Z,35.40
2018-04-18T20:08:37.279Z,35.60
2018-04-18T20:11:05.508Z,35.70
2018-04-18T20:13:32.954Z,35.60
2018-04-18T20:16:00.428Z,35.80
2018-04-18T20:18:27.876Z,35.90
2018-04-18T20:20:56.104Z,36.10
2018-04-18T20:23:23.555Z,36.00
2018-04-18T20:25:51.775Z,36.30
2018-04-18T20:28:19.244Z,36.20
2018-04-18T20:30:46.717Z,36.40
2018-04-18T20:33:14.176Z,36.40
2018-04-18T20:35:41.629Z,36.60
2018-04-18T20:38:09.151Z,36.60
2018-04-18T20:40:36.547Z,36.80
2018-04-18T20:43:04.012Z,36.90
2018-04-18T20:45:31.463Z,37.00
2018-04-18T20:47:58.937Z,37.10
2018-04-18T20:50:30.100Z,37.30
2018-04-18T20:52:58.338Z,37.50
2018-04-18T20:55:26.547Z,37.60
2018-04-18T20:57:54.012Z,37.50
2018-04-18T21:00:21.498Z,37.60
2018-04-18T21:02:49.688Z,37.90
2018-04-18T21:05:17.903Z,38.00
2018-04-18T21:07:46.138Z,38.10
2018-04-18T21:10:13.603Z,38.10
2018-04-18T21:12:41.059Z,38.20
2018-04-18T21:15:08.517Z,38.30
2018-04-18T21:17:36.768Z,38.60
2018-04-18T21:20:04.225Z,38.50
2018-04-18T21:22:31.688Z,38.60
2018-04-18T21:24:59.149Z,38.80
2018-04-18T21:27:26.619Z,38.80
2018-04-18T21:29:54.075Z,39.00
2018-04-18T21:32:22.296Z,39.30
2018-04-18T21:34:50.511Z,39.20
2018-04-18T21:37:17.989Z,39.20
2018-04-18T21:39:45.444Z,39.40
2018-04-18T21:42:12.931Z,39.50
2018-04-18T21:44:41.161Z,39.80
2018-04-18T21:47:08.654Z,39.70
2018-04-18T21:49:36.118Z,39.80
2018-04-18T21:52:03.571Z,39.90
2018-04-18T21:54:31.027Z,40.20
2018-04-18T21:56:58.478Z,40.20
2018-04-18T21:59:25.936Z,40.20
2018-04-18T22:01:53.381Z,40.30
2018-04-18T22:04:20.842Z,40.50
2018-04-18T22:06:49.104Z,40.60
2018-04-18T22:09:16.572Z,40.70
2018-04-18T22:11:44.029Z,40.80
2018-04-18T22:14:11.481Z,41.00
2018-04-18T22:16:38.959Z,41.10
2018-04-18T22:19:06.396Z,41.30
2018-04-18T22:21:33.861Z,41.30
2018-04-18T22:24:01.401Z,41.40
2018-04-18T22:26:28.839Z,41.40
2018-04-18T22:28:56.291Z,41.50
2018-04-18T22:31:23.736Z,41.70
2018-04-18T22:33:51.209Z,41.90
2018-04-18T22:36:18.656Z,41.90
2018-04-18T22:38:46.096Z,42.10
2018-04-18T22:41:14.311Z,42.40
2018-04-18T22:43:41.766Z,42.30
2018-04-18T22:46:09.227Z,42.60
2018-04-18T22:48:36.685Z,42.90
2018-04-18T22:51:04.165Z,43.00
2018-04-18T22:53:31.608Z,43.00
2018-04-18T22:55:59.061Z,43.20
2018-04-18T22:58:26.516Z,43.20
2018-04-18T23:00:53.972Z,43.40
2018-04-18T23:03:21.416Z,43.40
2018-04-18T23:05:48.870Z,43.70
2018-04-18T23:08:16.316Z,43.80
2018-04-18T23:10:44.546Z,44.00
2018-04-18T23:13:12.002Z,43.90
2018-04-18T23:15:39.464Z,44.00
2018-04-18T23:18:07.675Z,44.20
2018-04-18T23:20:35.909Z,44.20
2018-04-18T23:23:03.363Z,44.20
2018-04-18T23:25:30.816Z,44.30
2018-04-18T23:27:58.268Z,44.40
2018-04-18T23:30:25.864Z,44.40
2018-04-18T23:32:53.337Z,44.50
2018-04-18T23:35:20.780Z,44.60
2018-04-18T23:37:48.224Z,44.70
2018-04-18T23:40:15.679Z,44.80
2018-04-18T23:42:43.170Z,44.80
2018-04-18T23:45:11.355Z,45.00
2018-04-18T23:47:39.565Z,45.10
2018-04-18T23:50:07.007Z,45.00
2018-04-18T23:52:34.465Z,45.10
